createdAt,value
2023-05-11T00:00:37.186Z,3.78
2023-05-11T00:03:04.084Z,2.75
2023-05-11T00:05:30.712Z,6.38
2023-05-11T00:07:57.336Z,2.22
2023-05-11T00:10:23.860Z,2.03
2023-05-11T00:12:50.323Z,1.63
2023-05-11T00:15:16.913Z,2.15
2023-05-11T00:17:43.492Z,4.30
2023-05-11T00:20:10.465Z,2.33
2023-05-11T00:22:37.245Z,2.03
2023-05-11T00:25:04.515Z,4.85
2023-05-11T00:27:31.025Z,2.10
2023-05-11T00:29:58.033Z,3.63
2023-05-11T00:32:24.605Z,1.50
2023-05-11T00:34:51.120Z,1.48
2023-05-11T00:37:17.636Z,4.35
2023-05-11T00:39:44.181Z,2.50
2023-05-11T00:42:11.339Z,2.40
2023-05-11T00:44:37.827Z,1.35
2023-05-11T00:47:04.783Z,1.10
2023-05-11T00:49:31.515Z,1.20
2023-05-11T00:51:58.296Z,1.55
2023-05-11T00:54:25.287Z,1.40
2023-05-11T00:56:51.857Z,2.35
2023-05-11T00:59:18.949Z,2.35
2023-05-11T01:01:45.867Z,0.80
2023-05-11T01:04:13.099Z,1.60
2023-05-11T01:06:56.012Z,0.95
2023-05-11T01:10:01.116Z,1.25
2023-05-11T01:12:52.232Z,1.00
2023-05-11T01:15:27.562Z,1.17
2023-05-11T01:18:18.439Z,1.25
2023-05-11T01:20:47.741Z,1.42
2023-05-11T01:23:41.831Z,1.13
2023-05-11T01:26:34.084Z,1.02
2023-05-11T01:29:21.421Z,3.65
2023-05-11T01:31:49.726Z,1.40
2023-05-11T01:34:23.612Z,2.08
2023-05-11T01:36:58.567Z,1.50
2023-05-11T01:39:36.270Z,1.90
2023-05-11T01:42:08.477Z,1.65
2023-05-11T01:44:37.310Z,0.93
2023-05-11T01:47:05.670Z,1.42
2023-05-11T01:49:38.603Z,0.70
2023-05-11T01:52:07.942Z,1.23
2023-05-11T01:54:36.407Z,1.05
2023-05-11T01:57:04.325Z,2.28
2023-05-11T01:59:32.655Z,0.65
2023-05-11T02:02:01.658Z,0.73
2023-05-11T02:04:29.801Z,1.15
2023-05-11T02:06:59.431Z,0.88
2023-05-11T02:09:26.709Z,1.52
2023-05-11T02:11:55.811Z,2.13
2023-05-11T02:14:24.781Z,2.10
2023-05-11T02:16:53.238Z,1.52
2023-05-11T02:19:21.228Z,1.73
2023-05-11T02:21:49.635Z,0.93
2023-05-11T02:24:18.172Z,1.00
2023-05-11T02:26:44.733Z,1.98
2023-05-11T02:29:11.249Z,1.05
2023-05-11T02:31:43.996Z,1.00
2023-05-11T02:34:20.873Z,1.10
2023-05-11T02:36:53.437Z,1.60
2023-05-11T02:39:24.133Z,1.40
2023-05-11T02:41:57.176Z,0.95
2023-05-11T02:44:31.537Z,0.90
2023-05-11T02:47:02.525Z,2.72
2023-05-11T02:49:32.403Z,1.75
2023-05-11T02:52:01.927Z,0.88
2023-05-11T02:54:28.984Z,2.75
2023-05-11T02:56:56.454Z,1.33
2023-05-11T02:59:24.203Z,1.67
2023-05-11T03:01:51.002Z,0.80
2023-05-11T03:04:18.274Z,2.00
2023-05-11T03:06:44.817Z,1.67
2023-05-11T03:09:11.968Z,1.33
2023-05-11T03:11:38.891Z,1.15
2023-05-11T03:14:06.112Z,1.23
2023-05-11T03:16:33.588Z,0.80
2023-05-11T03:19:01.971Z,2.40
2023-05-11T03:21:28.887Z,1.00
2023-05-11T03:23:57.308Z,0.90
2023-05-11T03:26:27.433Z,2.05
2023-05-11T03:31:22.465Z,0.60
2023-05-11T03:33:49.100Z,0.85
2023-05-11T03:36:15.991Z,2.00
2023-05-11T03:38:46.798Z,0.98
2023-05-11T03:41:17.061Z,1.23
2023-05-11T03:43:49.806Z,1.10
2023-05-11T03:46:20.393Z,0.70
2023-05-11T03:48:48.577Z,1.25
2023-05-11T03:51:15.315Z,0.90
2023-05-11T03:53:42.162Z,1.52
2023-05-11T03:56:08.755Z,1.88
2023-05-11T03:58:40.359Z,1.35
2023-05-11T04:01:08.952Z,0.90
2023-05-11T04:03:47.649Z,1.52
2023-05-11T04:06:14.299Z,1.23
2023-05-11T04:08:40.837Z,2.08
2023-05-11T04:11:07.355Z,1.25
2023-05-11T04:13:33.823Z,2.90
2023-05-11T04:16:00.356Z,0.82
2023-05-11T04:18:26.934Z,2.65
2023-05-11T04:20:53.470Z,1.05
2023-05-11T04:23:19.952Z,1.48
2023-05-11T04:25:46.450Z,0.95
2023-05-11T04:28:13.035Z,0.73
2023-05-11T04:30:39.526Z,0.60
2023-05-11T04:33:06.035Z,0.50
2023-05-11T04:35:32.528Z,0.50
2023-05-11T04:37:58.985Z,1.60
2023-05-11T04:40:26.730Z,0.77
2023-05-11T04:42:53.801Z,0.70
2023-05-11T04:45:20.287Z,0.52
2023-05-11T04:47:46.894Z,1.98
2023-05-11T04:50:13.479Z,2.53
2023-05-11T04:52:39.968Z,0.65
2023-05-11T04:55:06.995Z,1.33
2023-05-11T04:57:34.703Z,0.80
2023-05-11T05:00:01.247Z,2.15
2023-05-11T05:02:27.822Z,1.08
2023-05-11T05:04:54.336Z,1.52
2023-05-11T05:07:20.831Z,0.68
2023-05-11T05:09:47.333Z,0.98
2023-05-11T05:12:13.851Z,0.60
2023-05-11T05:14:40.405Z,0.73
2023-05-11T05:17:07.638Z,1.65
2023-05-11T05:19:34.207Z,1.00
2023-05-11T05:22:00.782Z,1.20
2023-05-11T05:24:27.301Z,2.08
2023-05-11T05:26:53.792Z,4.53
2023-05-11T05:29:20.270Z,0.60
2023-05-11T05:31:46.869Z,0.60
2023-05-11T05:34:15.550Z,0.68
2023-05-11T05:36:43.013Z,0.60
2023-05-11T05:39:11.892Z,0.88
2023-05-11T05:41:38.435Z,0.90
2023-05-11T05:44:04.990Z,0.80
2023-05-11T05:46:31.572Z,0.52
2023-05-11T05:48:58.254Z,0.60
2023-05-11T05:51:24.803Z,0.55
2023-05-11T05:53:51.305Z,0.85
2023-05-11T05:56:17.848Z,0.80
2023-05-11T05:58:44.377Z,0.55
2023-05-11T06:01:10.850Z,1.30
2023-05-11T06:03:37.540Z,0.38
2023-05-11T06:06:04.172Z,0.40
2023-05-11T06:08:30.672Z,1.08
2023-05-11T06:10:57.168Z,1.05
2023-05-11T06:13:23.936Z,1.20
2023-05-11T06:15:50.463Z,3.17
2023-05-11T06:18:17.009Z,0.50
2023-05-11T06:20:43.531Z,0.82
2023-05-11T06:23:10.027Z,0.65
2023-05-11T06:25:37.420Z,1.55
2023-05-11T06:28:04.072Z,8.40
2023-05-11T06:30:31.348Z,3.30
2023-05-11T06:32:57.860Z,1.30
2023-05-11T06:35:24.525Z,0.75
2023-05-11T06:37:51.120Z,0.47
2023-05-11T06:40:18.004Z,0.63
2023-05-11T06:42:44.793Z,1.17
2023-05-11T06:45:11.583Z,0.50
2023-05-11T06:47:38.124Z,0.77
2023-05-11T06:50:05.293Z,3.00
2023-05-11T06:52:31.847Z,1.17
2023-05-11T06:54:58.321Z,2.17
2023-05-11T06:57:24.799Z,1.35
2023-05-11T06:59:51.591Z,3.10
2023-05-11T07:02:18.088Z,0.65
2023-05-11T07:04:44.623Z,1.65
2023-05-11T07:07:12.253Z,0.93
2023-05-11T07:09:40.074Z,0.77
2023-05-11T07:12:08.462Z,0.68
2023-05-11T07:14:34.940Z,0.55
2023-05-11T07:17:01.538Z,0.75
2023-05-11T07:19:28.052Z,2.33
2023-05-11T07:21:54.635Z,0.32
2023-05-11T07:24:21.190Z,1.10
2023-05-11T07:26:49.141Z,2.75
2023-05-11T07:29:15.908Z,2.05
2023-05-11T07:31:43.070Z,0.63
2023-05-11T07:34:09.748Z,0.50
2023-05-11T07:36:36.211Z,3.05
2023-05-11T07:39:02.781Z,0.75
2023-05-11T07:41:29.335Z,0.85
2023-05-11T07:43:55.842Z,0.50
2023-05-11T07:46:22.400Z,1.08
2023-05-11T07:48:51.621Z,0.55
2023-05-11T07:51:21.789Z,1.08
2023-05-11T07:53:48.398Z,0.30
2023-05-11T07:56:14.940Z,0.40
2023-05-11T07:58:41.464Z,0.30
2023-05-11T08:01:08.734Z,0.75
2023-05-11T08:03:35.287Z,1.42
2023-05-11T08:06:01.945Z,0.40
2023-05-11T08:08:28.540Z,0.93
2023-05-11T08:10:55.050Z,0.60
2023-05-11T08:13:21.702Z,0.30
2023-05-11T08:15:48.307Z,1.42
2023-05-11T08:18:15.152Z,0.57
2023-05-11T08:20:44.733Z,0.50
2023-05-11T08:23:17.134Z,1.08
2023-05-11T08:25:51.591Z,0.57
2023-05-11T08:28:19.165Z,1.50
2023-05-11T08:30:45.815Z,0.30
2023-05-11T08:33:33.934Z,1.27
2023-05-11T08:36:00.332Z,0.50
2023-05-11T08:38:26.842Z,0.68
2023-05-11T08:40:53.377Z,1.33
2023-05-11T08:43:20.471Z,0.90
2023-05-11T08:45:48.520Z,1.38
2023-05-11T08:48:20.466Z,1.38
2023-05-11T08:50:47.938Z,1.83
2023-05-11T08:53:14.657Z,0.63
2023-05-11T08:55:43.051Z,1.35
2023-05-11T08:58:10.333Z,1.48
2023-05-11T09:00:37.512Z,2.75
2023-05-11T09:03:05.263Z,0.88
2023-05-11T09:05:32.505Z,1.33
2023-05-11T09:08:05.227Z,1.00
2023-05-11T09:10:32.620Z,0.90
2023-05-11T09:12:59.145Z,1.08
2023-05-11T09:15:25.664Z,0.75
2023-05-11T09:17:52.204Z,1.00
2023-05-11T09:20:31.641Z,1.00
2023-05-11T09:22:58.646Z,2.65
2023-05-11T09:25:27.246Z,1.20
2023-05-11T09:27:53.822Z,2.17
2023-05-11T09:30:23.733Z,2.95
2023-05-11T09:32:56.257Z,3.60
2023-05-11T09:35:24.349Z,0.73
2023-05-11T09:38:19.267Z,1.50
2023-05-11T09:40:56.321Z,0.90
2023-05-11T09:43:26.354Z,0.77
2023-05-11T09:45:55.155Z,0.70
2023-05-11T09:48:21.805Z,0.85
2023-05-11T09:50:49.764Z,0.70
2023-05-11T09:53:17.986Z,1.38
2023-05-11T09:55:55.671Z,0.70
2023-05-11T09:58:22.268Z,0.60
2023-05-11T10:00:53.834Z,0.65
2023-05-11T10:03:20.985Z,1.17
2023-05-11T10:06:00.942Z,1.25
2023-05-11T10:08:30.208Z,1.45
2023-05-11T10:10:57.890Z,1.02
2023-05-11T10:13:24.930Z,2.25
2023-05-11T10:15:52.624Z,0.60
2023-05-11T10:18:20.462Z,0.70
2023-05-11T10:20:47.570Z,0.80
2023-05-11T10:23:15.647Z,0.55
2023-05-11T10:25:42.680Z,0.68
2023-05-11T10:28:10.503Z,2.08
2023-05-11T10:30:37.446Z,0.50
2023-05-11T10:33:06.345Z,0.50
2023-05-11T10:35:33.055Z,1.23
2023-05-11T10:38:01.014Z,0.50
2023-05-11T10:40:28.085Z,0.95
2023-05-11T10:43:23.658Z,2.25
2023-05-11T10:46:11.211Z,1.15
2023-05-11T10:49:10.017Z,1.63
2023-05-11T10:52:13.067Z,2.50
2023-05-11T10:55:09.474Z,0.98
2023-05-11T10:57:49.664Z,0.70
2023-05-11T11:00:30.789Z,0.90
2023-05-11T11:02:59.049Z,0.43
2023-05-11T11:05:35.872Z,1.48
2023-05-11T11:08:07.396Z,0.50
2023-05-11T11:10:36.145Z,0.50
2023-05-11T11:13:08.017Z,0.57
2023-05-11T11:15:53.645Z,1.33
2023-05-11T11:18:21.203Z,0.75
2023-05-11T11:20:55.426Z,0.88
2023-05-11T11:23:42.542Z,2.13
2023-05-11T11:26:16.500Z,2.10
2023-05-11T11:28:56.544Z,0.77
2023-05-11T11:33:52.060Z,0.70
2023-05-11T11:36:18.640Z,0.80
2023-05-11T11:39:01.708Z,1.00
2023-05-11T11:41:29.785Z,0.70
2023-05-11T11:43:56.546Z,1.10
2023-05-11T11:46:28.914Z,0.50
2023-05-11T11:49:09.649Z,0.35
2023-05-11T11:51:40.645Z,0.57
2023-05-11T11:54:07.728Z,0.40
2023-05-11T11:56:36.852Z,0.40
2023-05-11T11:59:05.309Z,0.33
2023-05-11T12:01:39.499Z,0.60
2023-05-11T12:04:18.567Z,0.73
2023-05-11T12:06:50.804Z,0.50
2023-05-11T12:09:19.297Z,0.47
2023-05-11T12:11:47.758Z,0.57
2023-05-11T12:14:15.397Z,0.63
2023-05-11T12:16:41.998Z,1.58
2023-05-11T12:19:08.577Z,1.13
2023-05-11T12:21:35.146Z,1.42
2023-05-11T12:24:04.310Z,0.60
2023-05-11T12:26:32.546Z,0.47
2023-05-11T12:29:13.152Z,1.02
2023-05-11T12:31:45.070Z,1.92
2023-05-11T12:34:16.258Z,0.50
2023-05-11T12:36:43.984Z,1.10
2023-05-11T12:39:20.936Z,1.10
2023-05-11T12:41:49.303Z,0.70
2023-05-11T12:44:17.510Z,1.20
2023-05-11T12:46:46.860Z,0.85
2023-05-11T12:51:52.002Z,0.90
2023-05-11T12:54:38.643Z,0.85
2023-05-11T12:57:06.697Z,1.10
2023-05-11T12:59:37.264Z,1.17
2023-05-11T13:02:07.810Z,1.60
2023-05-11T13:04:34.371Z,1.63
2023-05-11T13:07:01.035Z,1.83
2023-05-11T13:09:28.209Z,1.42
2023-05-11T13:12:22.615Z,1.50
2023-05-11T13:14:50.502Z,6.70
2023-05-11T13:17:37.296Z,7.68
2023-05-11T13:20:26.606Z,7.85
2023-05-11T13:23:10.755Z,3.10
2023-05-11T13:25:46.480Z,2.70
2023-05-11T13:28:15.560Z,2.00
2023-05-11T13:30:42.299Z,1.95
2023-05-11T13:33:09.168Z,1.08
2023-05-11T13:35:42.904Z,1.20
2023-05-11T13:38:10.790Z,1.40
2023-05-11T13:40:37.975Z,0.93
2023-05-11T13:43:04.836Z,0.80
2023-05-11T13:45:31.371Z,1.90
2023-05-11T13:47:57.950Z,1.55
2023-05-11T13:50:26.098Z,1.17
2023-05-11T13:52:53.727Z,1.20
2023-05-11T13:55:21.184Z,3.75
2023-05-11T13:57:48.050Z,7.88
2023-05-11T14:00:15.202Z,7.88
2023-05-11T14:02:41.963Z,2.15
2023-05-11T14:05:09.075Z,1.40
2023-05-11T14:07:47.206Z,2.13
2023-05-11T14:10:16.402Z,1.75
2023-05-11T14:12:43.299Z,2.72
2023-05-11T14:15:10.481Z,1.92
2023-05-11T14:17:37.284Z,2.70
2023-05-11T14:20:04.613Z,2.53
2023-05-11T14:22:31.306Z,1.27
2023-05-11T14:24:57.973Z,1.23
2023-05-11T14:27:24.597Z,1.88
2023-05-11T14:29:52.182Z,5.28
2023-05-11T14:32:19.508Z,7.57
2023-05-11T14:34:47.333Z,11.15
2023-05-11T14:37:13.863Z,10.30
2023-05-11T14:39:41.090Z,9.27
2023-05-11T14:42:07.877Z,8.10
2023-05-11T14:44:46.635Z,6.90
2023-05-11T14:47:13.253Z,5.20
2023-05-11T14:50:17.045Z,4.50
2023-05-11T14:52:49.687Z,3.85
2023-05-11T14:55:16.443Z,6.43
2023-05-11T14:58:04.127Z,3.60
2023-05-11T15:00:40.677Z,3.35
2023-05-11T15:03:08.045Z,3.83
2023-05-11T15:05:34.892Z,4.07
2023-05-11T15:08:29.627Z,2.53
2023-05-11T15:10:58.629Z,6.45
2023-05-11T15:17:02.804Z,7.15
2023-05-11T15:19:30.641Z,5.25
2023-05-11T15:21:57.429Z,7.68
2023-05-11T15:24:23.973Z,7.72
2023-05-11T15:26:50.584Z,9.30
2023-05-11T15:29:17.147Z,5.57
2023-05-11T15:31:43.745Z,3.33
2023-05-11T15:34:10.546Z,2.67
2023-05-11T15:36:37.299Z,5.28
2023-05-11T15:39:03.968Z,4.35
2023-05-11T15:41:30.499Z,3.95
2023-05-11T15:43:57.001Z,2.20
2023-05-11T15:46:23.584Z,1.52
2023-05-11T15:48:50.115Z,1.90
2023-05-11T15:51:16.608Z,2.83
2023-05-11T15:53:43.117Z,1.10
2023-05-11T15:56:09.932Z,1.33
2023-05-11T15:58:36.474Z,1.00
2023-05-11T16:01:03.227Z,0.70
2023-05-11T16:03:29.903Z,1.27
2023-05-11T16:05:56.424Z,1.00
2023-05-11T16:08:22.930Z,1.10
2023-05-11T16:10:49.505Z,1.33
2023-05-11T16:13:16.038Z,0.70
2023-05-11T16:15:42.605Z,1.30
2023-05-11T16:18:09.261Z,1.83
2023-05-11T16:20:35.763Z,1.38
2023-05-11T16:23:02.296Z,2.22
2023-05-11T16:25:29.255Z,2.35
2023-05-11T16:27:55.841Z,1.45
2023-05-11T16:30:25.480Z,1.70
2023-05-11T16:35:20.076Z,2.90
2023-05-11T16:37:47.803Z,2.67
2023-05-11T16:40:14.623Z,2.88
2023-05-11T16:42:41.155Z,2.80
2023-05-11T16:45:08.117Z,1.63
2023-05-11T16:47:34.795Z,1.10
2023-05-11T16:50:01.286Z,2.00
2023-05-11T16:52:27.878Z,1.30
2023-05-11T16:54:55.687Z,1.83
2023-05-11T16:57:25.114Z,1.45
2023-05-11T16:59:51.969Z,1.52
2023-05-11T17:02:19.834Z,1.65
2023-05-11T17:04:46.423Z,3.33
2023-05-11T17:07:14.848Z,1.25
2023-05-11T17:09:41.675Z,2.17
2023-05-11T17:12:10.380Z,1.52
2023-05-11T17:14:37.146Z,1.25
2023-05-11T17:17:08.105Z,1.33
2023-05-11T17:19:34.650Z,2.55
2023-05-11T17:22:01.319Z,1.35
2023-05-11T17:24:28.520Z,1.42
2023-05-11T17:26:55.182Z,4.40
2023-05-11T17:29:21.652Z,1.45
2023-05-11T17:31:50.359Z,1.77
2023-05-11T17:34:17.831Z,2.40
2023-05-11T17:36:44.682Z,1.30
2023-05-11T17:39:11.938Z,1.95
2023-05-11T17:41:44.040Z,2.10
2023-05-11T17:44:10.674Z,2.58
2023-05-11T17:46:37.244Z,1.25
2023-05-11T17:49:04.148Z,1.65
2023-05-11T17:51:31.268Z,1.75
2023-05-11T17:53:57.802Z,1.48
2023-05-11T17:56:24.451Z,1.25
2023-05-11T17:58:51.666Z,2.17
2023-05-11T18:01:18.957Z,1.65
2023-05-11T18:03:46.866Z,2.22
2023-05-11T18:06:13.646Z,4.20
2023-05-11T18:08:40.572Z,1.85
2023-05-11T18:11:10.145Z,2.20
2023-05-11T18:13:36.735Z,2.75
2023-05-11T18:16:03.706Z,2.78
2023-05-11T18:18:30.363Z,1.83
2023-05-11T18:20:57.492Z,2.90
2023-05-11T18:23:24.124Z,1.60
2023-05-11T18:25:50.623Z,3.15
2023-05-11T18:28:17.183Z,2.10
2023-05-11T18:30:43.690Z,2.40
2023-05-11T18:33:10.398Z,2.03
2023-05-11T18:35:39.013Z,3.47
2023-05-11T18:38:05.842Z,2.95
2023-05-11T18:40:32.414Z,2.15
2023-05-11T18:42:58.896Z,1.75
2023-05-11T18:45:25.424Z,1.52
2023-05-11T18:47:52.078Z,2.53
2023-05-11T18:50:18.735Z,2.50
2023-05-11T18:52:45.427Z,3.30
2023-05-11T18:55:11.933Z,2.15
2023-05-11T18:57:39.676Z,1.25
2023-05-11T19:00:07.065Z,1.63
2023-05-11T19:02:34.021Z,3.03
2023-05-11T19:05:01.318Z,1.95
2023-05-11T19:07:28.490Z,1.67
2023-05-11T19:09:55.288Z,2.60
2023-05-11T19:12:21.980Z,1.92
2023-05-11T19:14:48.463Z,2.97
2023-05-11T19:17:14.960Z,1.98
2023-05-11T19:19:42.052Z,2.10
2023-05-11T19:22:09.300Z,3.15
2023-05-11T19:24:36.171Z,2.10
2023-05-11T19:27:07.165Z,2.63
2023-05-11T19:29:34.924Z,2.10
2023-05-11T19:32:01.657Z,2.25
2023-05-11T19:34:28.283Z,2.40
2023-05-11T19:36:54.802Z,2.50
2023-05-11T19:39:21.351Z,2.33
2023-05-11T19:41:48.040Z,2.53
2023-05-11T19:44:14.577Z,2.60
2023-05-11T19:46:46.310Z,2.60
2023-05-11T19:49:15.158Z,2.70
2023-05-11T19:51:42.447Z,3.33
2023-05-11T19:54:09.587Z,3.00
2023-05-11T19:56:36.168Z,3.10
2023-05-11T19:59:02.936Z,3.40
2023-05-11T20:01:29.540Z,2.97
2023-05-11T20:03:56.638Z,3.90
2023-05-11T20:06:23.381Z,4.10
2023-05-11T20:08:51.557Z,4.75
2023-05-11T20:11:18.401Z,4.57
2023-05-11T20:13:45.249Z,4.28
2023-05-11T20:16:11.840Z,2.92
2023-05-11T20:18:38.520Z,2.58
2023-05-11T20:21:05.032Z,2.47
2023-05-11T20:23:31.661Z,5.70
2023-05-11T20:25:58.226Z,2.60
2023-05-11T20:28:27.409Z,2.15
2023-05-11T20:30:56.269Z,2.50
2023-05-11T20:35:53.493Z,1.70
2023-05-11T20:38:20.597Z,2.03
2023-05-11T20:40:47.092Z,1.70
2023-05-11T20:43:14.831Z,2.00
2023-05-11T20:45:42.231Z,2.03
2023-05-11T20:48:09.050Z,4.10
2023-05-11T20:50:35.735Z,1.60
2023-05-11T20:53:02.370Z,2.80
2023-05-11T20:55:28.888Z,1.90
2023-05-11T20:57:55.585Z,1.73
2023-05-11T21:00:22.991Z,1.70
2023-05-11T21:02:49.954Z,1.60
2023-05-11T21:05:16.658Z,2.05
2023-05-11T21:07:43.266Z,2.05
2023-05-11T21:10:12.438Z,1.58
2023-05-11T21:12:38.976Z,2.17
2023-05-11T21:15:07.208Z,1.90
2023-05-11T21:17:34.456Z,1.80
2023-05-11T21:20:02.494Z,2.03
2023-05-11T21:22:29.045Z,2.20
2023-05-11T21:24:55.547Z,3.17
2023-05-11T21:27:22.021Z,2.80
2023-05-11T21:29:49.182Z,2.00
2023-05-11T21:32:15.722Z,2.33
2023-05-11T21:34:42.510Z,2.97
2023-05-11T21:37:09.025Z,2.10
2023-05-11T21:39:35.566Z,2.67
2023-05-11T21:42:02.835Z,3.08
2023-05-11T21:44:29.386Z,2.35
2023-05-11T21:46:55.964Z,2.63
2023-05-11T21:49:22.815Z,1.65
2023-05-11T21:51:50.120Z,2.30
2023-05-11T21:54:16.602Z,2.08
2023-05-11T21:56:43.089Z,2.20
2023-05-11T21:59:09.562Z,2.35
2023-05-11T22:01:36.165Z,2.67
2023-05-11T22:04:02.852Z,2.10
2023-05-11T22:06:29.445Z,3.15
2023-05-11T22:08:56.117Z,3.47
2023-05-11T22:11:22.686Z,2.83
2023-05-11T22:13:49.256Z,3.78
2023-05-11T22:16:15.857Z,2.85
2023-05-11T22:18:42.438Z,3.42
2023-05-11T22:21:09.038Z,3.67
2023-05-11T22:23:35.781Z,4.07
2023-05-11T22:26:03.522Z,4.07
2023-05-11T22:28:30.126Z,3.88
2023-05-11T22:31:00.368Z,3.15
2023-05-11T22:33:27.060Z,2.92
2023-05-11T22:35:53.627Z,3.40
2023-05-11T22:38:20.144Z,3.65
2023-05-11T22:40:46.715Z,3.00
2023-05-11T22:43:13.199Z,2.80
2023-05-11T22:45:39.824Z,3.80
2023-05-11T22:48:07.303Z,3.30
2023-05-11T22:50:33.951Z,3.47
2023-05-11T22:53:01.210Z,2.95
2023-05-11T22:55:28.145Z,3.78
2023-05-11T22:57:54.790Z,3.47
2023-05-11T23:00:21.794Z,3.92
2023-05-11T23:02:48.662Z,3.25
2023-05-11T23:05:15.349Z,3.17
2023-05-11T23:07:41.883Z,4.45
2023-05-11T23:10:08.892Z,2.85
2023-05-11T23:12:35.587Z,2.92
2023-05-11T23:15:02.208Z,3.30
2023-05-11T23:17:28.887Z,4.18
2023-05-11T23:19:55.584Z,4.10
2023-05-11T23:22:22.087Z,3.72
2023-05-11T23:24:48.615Z,3.67
2023-05-11T23:27:15.808Z,3.97
2023-05-11T23:29:42.513Z,3.42
2023-05-11T23:32:09.262Z,3.58
2023-05-11T23:34:35.801Z,3.20
2023-05-11T23:37:02.317Z,4.45
2023-05-11T23:39:28.871Z,4.50
2023-05-11T23:41:55.356Z,4.78
2023-05-11T23:44:22.644Z,4.95
2023-05-11T23:46:49.137Z,5.05
2023-05-11T23:49:16.198Z,4.70
2023-05-11T23:51:42.687Z,6.20
2023-05-11T23:54:09.212Z,4.65
2023-05-11T23:56:35.687Z,5.40
2023-05-11T23:59:02.199Z,4.40
